Time;durP1;ratioP1;P1;durP2;ratioP2;P2;SDS_P1;SDS_P2;PMS_P1;PMS_P2;Temp;Humidity;BMP_temperature;BMP_pressure;BME280_temperature;BME280_humidity;BME280_pressure;Samples;Min_cycle;Max_cycle;Signal;HPM_P1;HPM_P2
2022/11/03 00:01:36;;;;;;;0.10;0.10;;;;;;;13.01;62.73;101359.19;5089526;28;20115;-82
2022/11/03 00:04:03;;;;;;;1.85;1.75;;;;;;;13.02;62.52;101352.97;5089389;28;20023;-82
2022/11/03 00:06:30;;;;;;;0.10;0.10;;;;;;;12.99;62.51;101343.28;5085082;28;20028;-79
2022/11/03 00:08:59;;;;;;;0.22;0.22;;;;;;;12.98;62.94;101345.97;5088492;28;20024;-80
2022/11/03 00:11:25;;;;;;;0.10;0.10;;;;;;;12.96;62.70;101343.34;5088475;28;20436;-83
2022/11/03 00:13:51;;;;;;;1.75;0.68;;;;;;;12.93;62.61;101343.41;5088595;28;20039;-80
2022/11/03 00:16:17;;;;;;;0.22;0.22;;;;;;;12.95;62.98;101328.31;5089811;28;20378;-79
2022/11/03 00:18:44;;;;;;;0.10;0.10;;;;;;;12.91;62.55;101324.81;5091633;28;20511;-80
2022/11/03 00:21:12;;;;;;;0.80;0.80;;;;;;;12.95;62.33;101326.50;5087899;28;20028;-81
2022/11/03 00:23:40;;;;;;;0.17;0.17;;;;;;;12.90;62.89;101317.75;5090211;28;20017;-81
2022/11/03 00:28:46;;;;;;;0.10;0.10;;;;;;;12.88;62.90;101319.56;5067174;28;20387;-81
2022/11/03 00:31:15;;;;;;;0.10;0.10;;;;;;;12.90;62.92;101311.56;5053768;28;20522;-81
2022/11/03 00:33:42;;;;;;;0.10;0.10;;;;;;;12.86;62.84;101310.75;5063620;28;20039;-79
2022/11/03 00:36:12;;;;;;;0.10;0.10;;;;;;;12.86;62.78;101305.44;5064773;28;20033;-80
2022/11/03 00:38:39;;;;;;;0.08;0.08;;;;;;;12.88;62.88;101302.75;5051063;28;20497;-80
2022/11/03 00:41:05;;;;;;;0.10;0.10;;;;;;;12.91;62.67;101300.00;5050547;28;20087;-81
2022/11/03 00:43:33;;;;;;;0.08;0.08;;;;;;;12.94;62.58;101311.44;5048671;28;20043;-80
2022/11/03 00:46:00;;;;;;;0.03;0.03;;;;;;;12.90;62.72;101307.13;5051954;28;20037;-79
2022/11/03 00:48:30;;;;;;;0.10;0.10;;;;;;;12.84;62.95;101301.06;5050382;28;20025;-82
2022/11/03 00:51:13;;;;;;;0.68;0.68;;;;;;;12.99;62.83;101305.16;5049958;28;20021;-81
2022/11/03 00:56:21;;;;;;;0.10;0.10;;;;;;;13.00;62.90;101296.28;5105241;27;20411;-80
2022/11/03 00:58:48;;;;;;;0.10;0.10;;;;;;;13.06;62.01;101301.44;5073404;28;20040;-81
2022/11/03 01:01:21;;;;;;;0.10;0.10;;;;;;;13.07;62.21;101287.22;5076707;28;20580;-82
2022/11/03 01:06:54;;;;;;;0.22;0.22;;;;;;;13.09;62.53;101285.41;5075781;28;20067;-81
2022/11/03 01:09:28;;;;;;;0.30;0.30;;;;;;;13.15;62.31;101287.06;5075389;28;20032;-80
2022/11/03 01:14:52;;;;;;;0.85;0.85;;;;;;;13.21;61.94;101285.13;5102364;27;20408;-81
2022/11/03 01:17:23;;;;;;;0.30;0.30;;;;;;;13.09;62.55;101264.13;5085203;28;20036;-80
2022/11/03 01:19:50;;;;;;;0.10;0.10;;;;;;;13.02;62.72;101273.16;5091056;28;20107;-81
2022/11/03 01:22:18;;;;;;;0.10;0.10;;;;;;;13.04;62.99;101269.56;5086673;28;20036;-81
2022/11/03 01:24:44;;;;;;;3.10;2.65;;;;;;;13.02;63.06;101274.06;5088790;28;20096;-81
2022/11/03 01:27:14;;;;;;;0.10;0.10;;;;;;;13.06;62.52;101269.50;5087894;28;20573;-81
2022/11/03 01:29:41;;;;;;;0.05;0.05;;;;;;;13.00;63.29;101261.72;5083883;28;20514;-80
2022/11/03 01:32:08;;;;;;;0.22;0.22;;;;;;;13.02;62.73;101251.88;5092321;28;20064;-81
2022/11/03 01:34:34;;;;;;;0.10;0.10;;;;;;;13.01;63.31;101250.13;5089212;28;20055;-81
2022/11/03 01:37:00;;;;;;;0.10;0.10;;;;;;;12.97;63.18;101253.78;5088303;28;20024;-81
2022/11/03 01:39:27;;;;;;;1.90;1.02;;;;;;;13.04;62.85;101253.59;5084119;28;20052;-81
2022/11/03 01:41:53;;;;;;;0.20;0.20;;;;;;;13.01;62.97;101247.47;5088762;28;20099;-82
2022/11/03 01:44:25;;;;;;;0.10;0.10;;;;;;;13.06;63.60;101243.81;5088607;28;20114;-81
2022/11/03 01:49:35;;;;;;;0.10;0.10;;;;;;;13.01;63.24;101235.06;5099855;27;20391;-80
2022/11/03 01:54:43;;;;;;;0.20;0.20;;;;;;;13.03;63.91;101237.69;5102214;27;1194797;-80
2022/11/03 01:57:14;;;;;;;0.00;0.00;;;;;;;12.97;64.02;101238.69;5120410;28;20035;-83
2022/11/03 01:59:43;;;;;;;0.60;0.60;;;;;;;12.98;63.84;101234.25;5125237;27;20097;-82
2022/11/03 02:02:10;;;;;;;0.03;0.03;;;;;;;12.91;63.70;101233.50;5112713;28;20498;-82
2022/11/03 02:04:36;;;;;;;0.10;0.10;;;;;;;12.95;63.77;101232.56;5116100;28;20024;-81
2022/11/03 02:07:25;;;;;;;0.10;0.10;;;;;;;13.01;64.00;101234.16;5117660;28;20038;-81
2022/11/03 02:09:51;;;;;;;0.10;0.10;;;;;;;12.94;64.13;101229.00;5113638;28;20024;-81
2022/11/03 02:12:20;;;;;;;0.10;0.10;;;;;;;12.94;64.16;101226.34;5111895;28;20111;-81
2022/11/03 02:14:57;;;;;;;0.10;0.10;;;;;;;12.94;63.79;101218.34;5115156;28;20386;-82
2022/11/03 02:17:27;;;;;;;0.30;0.30;;;;;;;12.94;63.90;101210.38;5114774;28;20028;-83
2022/11/03 02:20:21;;;;;;;0.10;0.10;;;;;;;13.01;64.17;101203.16;5110732;28;20042;-81
2022/11/03 02:23:27;;;;;;;0.00;0.00;;;;;;;12.99;64.13;101202.28;5112901;28;20404;-82
2022/11/03 02:25:56;;;;;;;0.00;0.00;;;;;;;12.90;64.59;101190.09;5117205;28;20041;-82
2022/11/03 02:28:26;;;;;;;0.10;0.10;;;;;;;12.90;64.55;101190.09;5125177;27;20478;-82
2022/11/03 02:36:51;;;;;;;0.10;0.10;;;;;;;12.95;64.51;101172.25;5062915;28;20395;-82
2022/11/03 02:39:27;;;;;;;0.10;0.10;;;;;;;12.95;64.37;101172.25;5041496;28;20037;-82
2022/11/03 02:41:58;;;;;;;0.10;0.10;;;;;;;13.01;64.27;101157.94;5048128;28;20084;-82
2022/11/03 02:44:25;;;;;;;0.15;0.15;;;;;;;13.03;65.06;101163.19;5041304;28;20037;-82
2022/11/03 02:46:57;;;;;;;0.25;0.20;;;;;;;13.04;64.97;101149.84;5042331;28;20039;-82
2022/11/03 02:49:23;;;;;;;0.10;0.10;;;;;;;13.06;64.74;101149.81;5038477;28;20079;-82
2022/11/03 02:51:59;;;;;;;0.10;0.10;;;;;;;13.07;64.48;101148.91;5042310;28;20037;-82
2022/11/03 02:54:30;;;;;;;0.10;0.10;;;;;;;13.07;64.44;101148.91;5037732;28;20021;-82
2022/11/03 02:57:05;;;;;;;0.05;0.05;;;;;;;13.02;65.05;101141.06;5044096;28;20049;-82
2022/11/03 02:59:37;;;;;;;0.10;0.10;;;;;;;13.06;65.02;101131.19;5034957;28;20526;-82
2022/11/03 03:02:12;;;;;;;0.17;0.17;;;;;;;13.09;64.70;101125.81;5039997;28;20116;-81
2022/11/03 03:04:52;;;;;;;0.10;0.10;;;;;;;13.06;65.46;101125.88;5045339;28;20489;-80
2022/11/03 03:07:26;;;;;;;0.10;0.10;;;;;;;13.02;64.97;101129.53;5044706;28;20128;-81
2022/11/03 03:10:15;;;;;;;0.10;0.10;;;;;;;13.13;65.05;101122.13;5035507;28;20079;-81
2022/11/03 03:12:46;;;;;;;0.10;0.10;;;;;;;13.13;64.70;101118.63;5046027;28;20523;-81
2022/11/03 03:15:15;;;;;;;0.10;0.10;;;;;;;13.05;65.17;101118.81;5042640;28;20040;-81
2022/11/03 03:18:11;;;;;;;0.10;0.10;;;;;;;13.14;64.81;101115.91;5042369;28;20393;-81
2022/11/03 03:21:01;;;;;;;0.45;0.45;;;;;;;13.14;65.14;101112.41;5042063;28;20024;-80
2022/11/03 03:23:34;;;;;;;0.00;0.00;;;;;;;13.07;65.47;101101.03;5040530;28;20048;-81
2022/11/03 03:26:12;;;;;;;0.00;0.00;;;;;;;13.10;65.50;101090.31;5037660;28;20112;-81
2022/11/03 03:28:49;;;;;;;0.65;0.65;;;;;;;13.11;65.43;101094.72;5039642;28;20174;-82
2022/11/03 03:31:18;;;;;;;0.10;0.10;;;;;;;13.07;65.69;101090.38;5035215;28;20029;-81
2022/11/03 03:33:46;;;;;;;0.08;0.08;;;;;;;13.01;65.62;101079.91;5045725;28;20110;-81
2022/11/03 03:36:16;;;;;;;0.10;0.10;;;;;;;13.07;65.62;101091.28;5050820;28;20603;-80
2022/11/03 03:38:49;;;;;;;0.00;0.00;;;;;;;13.12;66.01;101091.13;5046381;28;20532;-80
2022/11/03 03:41:20;;;;;;;0.10;0.10;;;;;;;13.15;65.73;101087.53;5052382;28;20025;-80
2022/11/03 03:43:54;;;;;;;0.10;0.10;;;;;;;13.17;66.10;101089.25;5045165;28;20037;-80
2022/11/03 03:46:23;;;;;;;0.10;0.10;;;;;;;13.16;66.13;101079.50;5039505;28;20021;-80
2022/11/03 03:48:49;;;;;;;0.00;0.00;;;;;;;13.18;65.67;101082.13;5034284;28;20029;-80
2022/11/03 03:51:21;;;;;;;0.10;0.10;;;;;;;13.24;65.96;101076.63;5032337;28;20148;-80
2022/11/03 03:53:51;;;;;;;0.13;0.13;;;;;;;13.33;65.50;101080.81;5025455;28;20044;-81
2022/11/03 03:56:24;;;;;;;0.10;0.10;;;;;;;13.29;65.97;101079.19;5031758;28;20698;-81
2022/11/03 03:58:50;;;;;;;;;;;;;;;13.42;65.63;101070.84;5026250;28;20126;-81
2022/11/03 04:01:16;;;;;;;5.63;0.95;;;;;;;13.33;65.72;101062.19;5025586;28;19913;-81
2022/11/03 04:03:42;;;;;;;0.10;0.10;;;;;;;13.29;65.63;101071.19;5033168;28;20087;-81
2022/11/03 04:06:09;;;;;;;0.10;0.10;;;;;;;13.32;65.67;101060.44;5032359;28;20117;-81
2022/11/03 04:08:35;;;;;;;0.00;0.00;;;;;;;13.28;65.82;101064.97;5027676;28;20178;-81
2022/11/03 04:22:21;;;;;;;0.10;0.10;;;;;;;13.25;65.92;101042.00;5032281;28;20029;-81
2022/11/03 04:24:50;;;;;;;0.10;0.10;;;;;;;13.25;66.47;101052.63;5026744;28;20033;-81
2022/11/03 04:27:27;;;;;;;0.10;0.10;;;;;;;13.32;66.39;101039.16;5030513;28;20481;-81
2022/11/03 04:29:59;;;;;;;0.10;0.10;;;;;;;13.28;66.47;101046.34;5023610;28;20067;-81
2022/11/03 04:32:25;;;;;;;0.10;0.10;;;;;;;13.24;65.89;101037.56;5024890;28;20567;-81
2022/11/03 04:34:52;;;;;;;0.10;0.10;;;;;;;13.23;66.32;101032.31;5033036;28;20029;-80
2022/11/03 04:37:18;;;;;;;0.10;0.10;;;;;;;13.28;66.50;101025.06;5026857;28;20044;-81
2022/11/03 04:39:44;;;;;;;0.10;0.10;;;;;;;13.25;66.55;101026.03;5013691;28;20401;-81
2022/11/03 04:44:53;;;;;;;0.00;0.00;;;;;;;13.25;66.53;101023.38;5103912;27;20407;-81
2022/11/03 04:47:19;;;;;;;0.10;0.10;;;;;;;13.22;66.76;101017.25;5091662;28;20032;-81
2022/11/03 04:49:47;;;;;;;1.67;1.65;;;;;;;13.24;67.09;101010.13;5091955;28;20036;-81
2022/11/03 04:52:20;;;;;;;0.10;0.10;;;;;;;13.30;67.05;101011.75;5092462;28;20028;-80
2022/11/03 04:54:48;;;;;;;0.10;0.10;;;;;;;13.31;67.22;101009.03;5090832;28;20036;-81
2022/11/03 04:57:16;;;;;;;0.05;0.05;;;;;;;13.31;67.31;101002.81;5091632;28;20028;-81
2022/11/03 04:59:46;;;;;;;0.30;0.30;;;;;;;13.31;67.31;101010.78;5091704;28;20532;-81
2022/11/03 05:02:17;;;;;;;0.10;0.10;;;;;;;13.36;67.18;100999.13;5088796;28;20032;-81
2022/11/03 05:04:43;;;;;;;0.10;0.10;;;;;;;13.37;67.32;100999.97;5088624;28;20070;-81
2022/11/03 05:07:32;;;;;;;0.10;0.10;;;;;;;13.49;67.05;100991.66;5091518;28;20039;-81
2022/11/03 05:09:59;;;;;;;0.10;0.10;;;;;;;13.47;67.04;100992.63;5089472;28;20586;-81
2022/11/03 05:12:26;;;;;;;0.05;0.05;;;;;;;13.47;67.12;100988.19;5092065;28;20036;-81
2022/11/03 05:14:52;;;;;;;0.10;0.10;;;;;;;13.47;67.13;100980.22;5089710;28;20074;-81
2022/11/03 05:17:28;;;;;;;0.00;0.00;;;;;;;13.55;67.06;100977.31;5092441;28;20024;-81
2022/11/03 05:19:58;;;;;;;0.00;0.00;;;;;;;13.54;67.07;100965.78;5090855;28;20500;-80
2022/11/03 05:22:28;;;;;;;0.10;0.10;;;;;;;13.55;66.97;100966.66;5090030;28;20099;-80
2022/11/03 05:24:59;;;;;;;0.05;0.05;;;;;;;13.61;67.20;100965.59;5098075;28;20047;-81
2022/11/03 05:27:26;;;;;;;0.85;0.85;;;;;;;13.64;67.12;100954.84;5088660;28;20468;-82
2022/11/03 05:29:54;;;;;;;0.10;0.10;;;;;;;13.68;67.08;100953.84;5087011;28;20058;-82
2022/11/03 05:32:26;;;;;;;0.10;0.10;;;;;;;13.73;66.99;100946.56;5089828;28;20028;-81
2022/11/03 05:34:54;;;;;;;0.10;0.10;;;;;;;13.75;67.01;100934.09;5091907;28;20043;-81
2022/11/03 05:40:16;;;;;;;0.10;0.10;;;;;;;13.81;67.07;100931.22;5107952;27;20409;-82
2022/11/03 05:42:45;;;;;;;0.10;0.10;;;;;;;13.82;66.93;100940.09;5108205;28;20089;-81
2022/11/03 05:45:21;;;;;;;0.10;0.10;;;;;;;13.82;66.74;100935.66;5100675;28;21448;-81
2022/11/03 05:47:49;;;;;;;0.13;0.13;;;;;;;13.82;66.91;100924.09;5092111;28;20040;-82
2022/11/03 05:53:03;;;;;;;0.10;0.10;;;;;;;13.88;67.08;100927.47;5075101;27;20389;-80
2022/11/03 05:55:33;;;;;;;2.70;2.45;;;;;;;13.94;66.63;100918.38;5074097;28;20036;-80
2022/11/03 05:58:10;;;;;;;0.08;0.08;;;;;;;13.88;67.02;100923.91;5080362;28;20165;-82
2022/11/03 06:00:41;;;;;;;0.00;0.00;;;;;;;13.85;67.05;100919.56;5085943;28;20031;-81
2022/11/03 06:03:17;;;;;;;4.40;1.70;;;;;;;13.91;66.90;100913.16;5080572;28;20108;-81
2022/11/03 06:05:44;;;;;;;0.10;0.10;;;;;;;13.83;66.88;100915.19;5088265;28;20482;-81
2022/11/03 06:08:22;;;;;;;0.00;0.00;;;;;;;13.88;66.70;100900.81;5089643;28;20030;-80
2022/11/03 06:10:52;;;;;;;0.00;0.00;;;;;;;13.81;66.68;100912.59;5077137;28;20052;-80
2022/11/03 06:13:22;;;;;;;0.10;0.10;;;;;;;13.77;67.27;100905.63;5076496;28;20051;-81
2022/11/03 06:15:55;;;;;;;6.80;1.55;;;;;;;13.78;67.34;100902.03;5077082;28;20045;-81
2022/11/03 06:18:24;;;;;;;0.10;0.10;;;;;;;13.76;67.34;100893.22;5084351;28;20030;-83
2022/11/03 06:20:56;;;;;;;0.15;0.15;;;;;;;13.83;67.00;100894.78;5082896;28;20025;-81
2022/11/03 06:23:23;;;;;;;0.10;0.10;;;;;;;13.83;67.15;100900.09;5075186;28;20036;-80
2022/11/03 06:25:52;;;;;;;0.47;0.47;;;;;;;13.80;67.18;100894.00;5089762;28;20588;-81
2022/11/03 06:28:22;;;;;;;0.10;0.10;;;;;;;13.83;67.22;100889.44;5083365;28;20028;-82
2022/11/03 06:30:49;;;;;;;0.10;0.10;;;;;;;13.82;67.40;100882.38;5078699;28;20037;-82
2022/11/03 06:37:09;;;;;;;0.00;0.00;;;;;;;13.83;67.58;100873.47;5104279;27;20407;-80
2022/11/03 06:39:35;;;;;;;0.20;0.20;;;;;;;13.86;67.26;100875.16;5077450;28;20031;-77
2022/11/03 06:42:10;;;;;;;0.30;0.30;;;;;;;13.85;67.51;100873.41;5066535;28;20114;-78
2022/11/03 06:44:39;;;;;;;0.10;0.10;;;;;;;13.80;67.57;100873.56;5065272;28;20024;-79
2022/11/03 06:47:20;;;;;;;0.00;0.00;;;;;;;13.86;67.63;100872.50;5062168;28;20117;-79
2022/11/03 06:49:48;;;;;;;0.10;0.10;;;;;;;13.89;67.82;100867.94;5077138;28;20025;-80
2022/11/03 06:52:34;;;;;;;0.00;0.00;;;;;;;13.92;67.61;100882.94;5080397;28;20488;-78
2022/11/03 06:57:47;;;;;;;0.10;0.10;;;;;;;13.91;67.81;100870.56;5087584;27;20395;-81
2022/11/03 07:00:29;;;;;;;0.35;0.35;;;;;;;14.02;67.40;100873.72;5078168;28;20028;-80
2022/11/03 07:05:35;;;;;;;0.10;0.10;;;;;;;13.94;67.52;100874.91;5099513;27;20355;-79
2022/11/03 07:08:25;;;;;;;0.10;0.10;;;;;;;14.06;67.30;100864.69;5086900;28;20028;-82
2022/11/03 07:11:01;;;;;;;0.10;0.10;;;;;;;14.05;67.61;100868.28;5066631;28;20037;-79
2022/11/03 07:13:31;;;;;;;0.00;0.00;;;;;;;14.00;67.62;100870.22;5063802;28;20033;-79
2022/11/03 07:15:57;;;;;;;0.20;0.20;;;;;;;14.01;67.59;100861.31;5058468;28;20036;-79
2022/11/03 07:18:28;;;;;;;0.08;0.08;;;;;;;14.07;67.74;100862.91;5059353;28;20056;-79
2022/11/03 07:20:59;;;;;;;0.10;0.10;;;;;;;14.03;67.90;100866.59;5056905;28;20024;-79
2022/11/03 07:23:28;;;;;;;0.05;0.05;;;;;;;14.05;67.80;100859.41;5049603;28;20044;-79
2022/11/03 07:25:59;;;;;;;0.38;0.38;;;;;;;14.13;67.75;100864.47;5060244;28;20421;-79
2022/11/03 07:28:34;;;;;;;0.10;0.10;;;;;;;14.10;67.83;100865.47;5060008;28;20491;-79
2022/11/03 07:31:09;;;;;;;0.43;0.43;;;;;;;14.10;67.63;100857.47;5053548;28;20350;-79
2022/11/03 07:33:35;;;;;;;34.80;1.27;;;;;;;14.11;67.17;100861.88;5060943;28;20032;-79
2022/11/03 07:36:03;;;;;;;0.32;0.32;;;;;;;14.15;67.61;100852.84;5055246;28;20033;-79
2022/11/03 07:38:29;;;;;;;0.10;0.10;;;;;;;14.16;67.52;100851.94;5062977;28;20088;-78
2022/11/03 07:40:57;;;;;;;0.03;0.03;;;;;;;14.15;67.46;100852.84;5062808;28;20048;-80
2022/11/03 07:43:31;;;;;;;1.23;1.13;;;;;;;14.18;67.61;100851.88;5061300;28;20028;-79
2022/11/03 07:46:02;;;;;;;0.10;0.10;;;;;;;14.23;67.38;100856.13;5060232;28;20021;-80
2022/11/03 07:48:49;;;;;;;0.10;0.10;;;;;;;14.28;67.37;100857.75;5060281;28;20429;-79
2022/11/03 07:54:00;;;;;;;0.10;0.10;;;;;;;14.22;67.67;100850.84;5122913;27;20684;-79
2022/11/03 07:56:31;;;;;;;0.10;0.10;;;;;;;14.22;67.77;100846.38;5108400;28;20031;-79
2022/11/03 07:59:12;;;;;;;3.83;0.52;;;;;;;14.24;67.66;100841.88;5106401;28;20031;-79
2022/11/03 08:01:44;;;;;;;0.10;0.10;;;;;;;14.27;67.63;100840.00;5104478;28;20059;-79
2022/11/03 08:04:16;;;;;;;0.10;0.10;;;;;;;14.28;67.73;100836.41;5107850;28;20020;-79
2022/11/03 08:06:42;;;;;;;3.58;2.00;;;;;;;14.34;67.66;100825.53;5101706;27;20054;-79
2022/11/03 08:09:09;;;;;;;0.10;0.10;;;;;;;14.38;67.62;100829.84;5104106;28;20024;-79
2022/11/03 08:11:35;;;;;;;0.10;0.10;;;;;;;14.44;67.69;100821.59;5110364;28;20036;-80
2022/11/03 08:14:01;;;;;;;0.20;0.20;;;;;;;14.46;67.55;100819.78;5107257;28;20485;-79
2022/11/03 08:16:27;;;;;;;0.08;0.08;;;;;;;14.52;67.42;100808.88;5108289;28;20024;-79
2022/11/03 08:18:53;;;;;;;0.08;0.08;;;;;;;14.60;67.37;100794.41;5101093;28;20100;-80
2022/11/03 08:21:19;;;;;;;0.08;0.08;;;;;;;14.52;67.30;100797.38;5107997;28;20098;-79
2022/11/03 08:23:45;;;;;;;0.20;0.20;;;;;;;14.60;67.19;100792.59;5102850;28;20044;-79
2022/11/03 08:26:11;;;;;;;0.30;0.30;;;;;;;14.63;67.17;100792.50;5108208;28;20085;-80
2022/11/03 08:28:37;;;;;;;9.02;0.75;;;;;;;14.64;66.99;100782.69;5103432;28;20027;-78
2022/11/03 08:31:04;;;;;;;0.20;0.20;;;;;;;14.62;66.99;100788.09;5104991;28;20032;-80
2022/11/03 08:33:31;;;;;;;0.00;0.00;;;;;;;14.69;66.87;100776.28;5118675;28;20115;-78
2022/11/03 08:35:58;;;;;;;0.10;0.10;;;;;;;14.69;66.81;100762.97;5109023;28;20061;-79
2022/11/03 08:38:24;;;;;;;0.50;0.50;;;;;;;14.66;66.88;100768.41;5093522;28;20553;-79
2022/11/03 08:40:51;;;;;;;0.65;0.60;;;;;;;14.76;66.77;100768.91;5095507;28;20520;-79
2022/11/03 08:43:18;;;;;;;0.10;0.10;;;;;;;14.80;66.59;100772.34;5102483;27;20081;-79
2022/11/03 08:45:44;;;;;;;0.10;0.10;;;;;;;14.84;66.22;100757.94;5109826;28;20162;-79
2022/11/03 08:48:11;;;;;;;0.10;0.10;;;;;;;14.84;66.18;100749.94;5102577;28;20043;-80
2022/11/03 08:50:37;;;;;;;0.88;0.88;;;;;;;14.93;66.07;100738.03;5102999;28;20035;-79
2022/11/03 08:53:03;;;;;;;0.10;0.10;;;;;;;14.99;65.82;100727.13;5107266;28;20504;-80
2022/11/03 08:55:29;;;;;;;0.10;0.10;;;;;;;15.01;65.74;100722.59;5104554;28;20076;-82
2022/11/03 08:57:55;;;;;;;0.10;0.10;;;;;;;14.99;65.51;100714.66;5107639;28;20024;-79
2022/11/03 09:00:21;;;;;;;0.10;0.10;;;;;;;15.03;65.63;100702.06;5106457;28;20036;-79
2022/11/03 09:02:48;;;;;;;1.58;1.48;;;;;;;15.06;65.61;100706.41;5109232;28;20016;-79
2022/11/03 09:05:14;;;;;;;0.00;0.00;;;;;;;15.08;65.27;100699.19;5092035;28;20016;-79
2022/11/03 09:07:41;;;;;;;0.10;0.10;;;;;;;15.11;65.41;100681.25;5096669;28;20024;-80
2022/11/03 09:10:08;;;;;;;0.10;0.10;;;;;;;15.13;65.14;100684.75;5090736;28;20047;-78
2022/11/03 09:12:36;;;;;;;0.13;0.13;;;;;;;15.15;64.96;100677.56;5089705;28;20500;-79
2022/11/03 09:15:03;;;;;;;1.13;1.13;;;;;;;15.22;65.10;100687.97;5093078;28;20535;-80
2022/11/03 09:17:30;;;;;;;9.00;2.40;;;;;;;15.24;65.08;100678.06;5090351;28;20036;-80
2022/11/03 09:19:56;;;;;;;0.60;0.60;;;;;;;15.25;64.85;100669.16;5092609;22;20030;-81
2022/11/03 09:22:22;;;;;;;0.20;0.20;;;;;;;15.31;64.76;100666.22;5033192;28;20048;-81
2022/11/03 09:24:48;;;;;;;9.05;0.90;;;;;;;15.32;64.82;100657.28;5032924;28;20040;-81
2022/11/03 09:27:14;;;;;;;0.10;0.10;;;;;;;15.36;64.58;100650.88;5034730;28;20034;-81
2022/11/03 09:29:40;;;;;;;0.20;0.20;;;;;;;15.46;64.48;100646.84;5033447;28;20041;-81
2022/11/03 09:32:07;;;;;;;0.73;0.73;;;;;;;15.45;64.07;100645.16;5033813;28;20063;-81
2022/11/03 09:34:33;;;;;;;0.10;0.10;;;;;;;15.53;63.99;100631.44;5031919;28;20095;-81
2022/11/03 09:36:59;;;;;;;0.10;0.10;;;;;;;15.58;64.05;100626.75;5034097;28;20523;-81
2022/11/03 09:39:25;;;;;;;0.30;0.30;;;;;;;15.63;63.68;100629.25;5032659;28;20458;-81
2022/11/03 09:41:52;;;;;;;0.00;0.00;;;;;;;15.66;63.85;100613.06;5033416;28;20463;-81
2022/11/03 09:44:19;;;;;;;0.10;0.10;;;;;;;15.73;63.33;100622.53;5033613;28;20037;-81
2022/11/03 09:46:45;;;;;;;0.08;0.08;;;;;;;15.74;63.19;100608.25;5033717;28;20029;-80
2022/11/03 09:49:14;;;;;;;0.20;0.20;;;;;;;15.76;62.70;100611.72;5034065;28;20156;-80
2022/11/03 09:51:41;;;;;;;0.20;0.20;;;;;;;15.80;62.32;100607.97;5031444;28;20025;-80
2022/11/03 09:54:12;;;;;;;0.10;0.10;;;;;;;15.80;62.50;100607.97;5033939;28;20041;-80
2022/11/03 09:56:38;;;;;;;0.10;0.10;;;;;;;15.79;62.15;100603.56;5032344;28;20037;-80
2022/11/03 09:59:16;;;;;;;0.10;0.10;;;;;;;15.86;62.27;100601.50;5032458;28;20512;-80
2022/11/03 10:01:45;;;;;;;0.10;0.10;;;;;;;15.80;62.04;100599.06;5033908;28;20025;-81
2022/11/03 10:04:12;;;;;;;0.57;0.57;;;;;;;15.82;61.74;100592.75;5032903;28;20030;-80
2022/11/03 10:06:39;;;;;;;0.75;0.75;;;;;;;15.82;61.67;100587.41;5034023;28;20033;-81
2022/11/03 10:09:09;;;;;;;0.00;0.00;;;;;;;15.87;62.14;100586.34;5033163;28;20056;-80
2022/11/03 10:11:37;;;;;;;0.10;0.10;;;;;;;15.89;61.84;100589.81;5027493;28;20500;-82
2022/11/03 10:14:03;;;;;;;0.13;0.13;;;;;;;15.91;61.54;100583.44;5025956;28;20560;-79
2022/11/03 10:16:29;;;;;;;0.10;0.10;;;;;;;15.96;61.62;100577.91;5030278;28;20057;-81
2022/11/03 10:18:56;;;;;;;0.10;0.10;;;;;;;15.99;61.23;100580.44;5031533;28;20083;-81
2022/11/03 10:21:29;;;;;;;0.25;0.25;;;;;;;16.01;61.23;100581.22;5031852;28;20527;-81
2022/11/03 10:23:55;;;;;;;0.10;0.10;;;;;;;16.07;61.43;100572.06;5038024;28;20021;-81
2022/11/03 10:26:22;;;;;;;0.10;0.10;;;;;;;16.07;61.20;100567.56;5037527;28;20037;-81
2022/11/03 10:28:58;;;;;;;0.10;0.10;;;;;;;16.18;61.21;100559.91;5035918;28;20037;-81
2022/11/03 10:31:33;;;;;;;0.10;0.10;;;;;;;16.22;60.50;100565.13;5034820;28;20065;-82
2022/11/03 10:33:59;;;;;;;0.40;0.40;;;;;;;16.22;60.50;100557.09;5035874;28;20107;-81
2022/11/03 10:36:27;;;;;;;0.00;0.00;;;;;;;16.18;60.15;100546.53;5034412;28;20030;-82
2022/11/03 10:38:54;;;;;;;0.10;0.10;;;;;;;16.23;60.27;100534.78;5036752;28;20481;-81
2022/11/03 10:41:31;;;;;;;0.10;0.10;;;;;;;16.29;60.10;100513.09;5033770;28;20489;-82
2022/11/03 10:46:59;;;;;;;0.30;0.30;;;;;;;16.36;59.68;100509.16;5108482;27;20423;-80
2022/11/03 10:49:29;;;;;;;0.10;0.10;;;;;;;16.38;59.44;100507.28;5085595;28;20081;-80
2022/11/03 10:52:17;;;;;;;0.10;0.10;;;;;;;16.47;59.06;100501.50;5087443;28;20032;-80
2022/11/03 10:54:43;;;;;;;0.10;0.10;;;;;;;16.50;59.02;100495.97;5080373;28;20143;-79
2022/11/03 10:57:09;;;;;;;0.10;0.10;;;;;;;16.57;58.85;100498.34;5086718;28;20036;-80
2022/11/03 10:59:37;;;;;;;0.10;0.10;;;;;;;16.65;58.83;100496.16;5091144;28;20025;-79
2022/11/03 11:02:14;;;;;;;0.10;0.10;;;;;;;16.72;57.74;100494.88;5088785;28;20470;-80
2022/11/03 11:04:40;;;;;;;0.20;0.20;;;;;;;16.79;58.46;100479.38;5087181;28;20024;-80
2022/11/03 11:07:28;;;;;;;0.20;0.20;;;;;;;16.77;58.03;100490.16;5090302;28;20040;-80
2022/11/03 11:09:54;;;;;;;0.10;0.10;;;;;;;16.79;57.51;100482.06;5075565;28;20102;-80
2022/11/03 11:12:23;;;;;;;0.00;0.00;;;;;;;16.81;57.85;100473.00;5079017;28;20028;-80
2022/11/03 11:14:56;;;;;;;0.10;0.10;;;;;;;16.87;57.77;100477.16;5079037;28;20393;-79
2022/11/03 11:17:41;;;;;;;0.10;0.10;;;;;;;16.91;57.46;100478.78;5088607;28;20393;-80
2022/11/03 11:20:29;;;;;;;0.10;0.10;;;;;;;16.97;57.40;100466.88;5072601;28;20017;-80
2022/11/03 11:23:15;;;;;;;0.00;0.00;;;;;;;16.77;56.98;100460.75;5088874;28;20024;-79
2022/11/03 11:29:05;;;;;;;0.30;0.30;;;;;;;16.73;57.46;100448.44;5101571;27;1189141;-78
2022/11/03 11:31:32;;;;;;;0.00;0.00;;;;;;;16.76;58.08;100450.97;5135302;27;20084;-78
2022/11/03 11:42:16;;;;;;;0.10;0.10;;;;;;;16.81;57.48;100416.81;5108813;27;20882;-79
2022/11/03 11:47:27;;;;;;;0.00;0.00;;;;;;;16.93;57.59;100406.44;5082171;28;20329;-79
2022/11/03 11:52:54;;;;;;;0.00;0.00;;;;;;;17.00;57.29;100388.22;5106364;27;1201959;-79
2022/11/03 11:55:43;;;;;;;0.10;0.10;;;;;;;17.16;57.46;100374.88;5110950;28;20046;-79
2022/11/03 11:58:24;;;;;;;0.10;0.10;;;;;;;17.20;57.13;100376.47;5120220;27;20027;-79
2022/11/03 12:00:55;;;;;;;0.00;0.00;;;;;;;17.16;56.60;100365.03;5106396;28;20053;-79
2022/11/03 12:03:27;;;;;;;0.10;0.10;;;;;;;17.19;56.50;100364.00;5096282;28;20024;-78
2022/11/03 12:05:53;;;;;;;0.10;0.10;;;;;;;17.14;57.01;100356.22;5098537;27;20482;-79
2022/11/03 12:08:24;;;;;;;0.50;0.50;;;;;;;17.13;56.51;100360.72;5094744;28;20055;-79
2022/11/03 12:10:53;;;;;;;0.25;0.25;;;;;;;17.13;56.85;100360.72;5107616;28;20104;-80
2022/11/03 12:13:39;;;;;;;0.00;0.00;;;;;;;17.21;56.45;100346.03;5106878;28;20019;-80
2022/11/03 12:16:05;;;;;;;0.35;0.35;;;;;;;17.16;56.60;100326.69;5107131;28;20047;-80
2022/11/03 12:18:37;;;;;;;0.10;0.10;;;;;;;17.17;56.43;100318.59;5096446;28;20474;-79
2022/11/03 12:21:06;;;;;;;0.00;0.00;;;;;;;17.14;56.02;100300.00;5109442;28;20485;-80
2022/11/03 12:23:41;;;;;;;1.27;1.17;;;;;;;17.18;56.13;100303.38;5107778;28;20038;-80
2022/11/03 12:26:17;;;;;;;0.10;0.10;;;;;;;17.10;55.55;100317.22;5103471;27;20024;-80
2022/11/03 12:28:44;;;;;;;12.18;0.90;;;;;;;17.11;56.48;100322.47;5101353;28;20076;-78
2022/11/03 12:31:11;;;;;;;0.10;0.10;;;;;;;17.18;56.19;100317.63;5103600;28;20077;-79
2022/11/03 12:33:37;;;;;;;0.00;0.00;;;;;;;17.28;56.17;100304.59;5106314;28;20428;-80
2022/11/03 12:36:03;;;;;;;5.68;1.05;;;;;;;17.39;55.38;100296.78;5113361;28;20031;-79
2022/11/03 12:38:29;;;;;;;0.10;0.10;;;;;;;17.54;55.18;100289.69;5109172;28;20027;-80
2022/11/03 12:40:56;;;;;;;0.10;0.10;;;;;;;17.66;54.93;100293.50;5118987;28;20440;-79
2022/11/03 12:43:22;;;;;;;0.10;0.10;;;;;;;17.78;54.58;100290.09;5107297;28;20142;-79
2022/11/03 12:45:51;;;;;;;0.08;0.08;;;;;;;17.95;54.56;100277.53;5108429;28;20065;-79
2022/11/03 12:48:18;;;;;;;0.10;0.10;;;;;;;18.08;54.96;100269.59;5118515;28;20035;-80
2022/11/03 12:50:44;;;;;;;0.63;0.63;;;;;;;18.26;53.94;100270.31;5094342;28;20559;-79
2022/11/03 12:53:10;;;;;;;0.10;0.10;;;;;;;18.37;52.61;100258.94;5110672;28;20064;-79